createdAt,value
2019-01-14T00:02:08.993Z,7.30
2019-01-14T00:04:39.543Z,7.30
2019-01-14T00:07:10.109Z,7.20
2019-01-14T00:09:40.869Z,7.20
2019-01-14T00:12:11.773Z,7.20
2019-01-14T00:14:43.060Z,7.10
2019-01-14T00:17:13.633Z,7.10
2019-01-14T00:19:44.907Z,7.10
2019-01-14T00:22:15.819Z,7.20
2019-01-14T00:24:46.449Z,7.20
2019-01-14T00:27:17.057Z,7.20
2019-01-14T00:29:47.840Z,7.20
2019-01-14T00:32:19.100Z,7.20
2019-01-14T00:34:49.401Z,7.20
2019-01-14T00:37:20.479Z,7.20
2019-01-14T00:39:51.319Z,7.10
2019-01-14T00:42:22.020Z,7.20
2019-01-14T00:44:52.911Z,7.20
2019-01-14T00:47:23.779Z,7.10
2019-01-14T00:49:54.840Z,7.10
2019-01-14T00:52:25.133Z,7.10
2019-01-14T00:54:56.330Z,7.10
2019-01-14T00:57:26.800Z,7.20
2019-01-14T00:59:57.567Z,7.30
2019-01-14T01:02:28.473Z,7.30
2019-01-14T01:04:58.731Z,7.30
2019-01-14T01:07:29.190Z,7.30
2019-01-14T01:09:59.739Z,7.30
2019-01-14T01:12:30.642Z,7.30
2019-01-14T01:15:01.844Z,7.30
2019-01-14T01:17:32.720Z,7.30
2019-01-14T01:20:03.973Z,7.40
2019-01-14T01:22:34.557Z,7.40
2019-01-14T01:25:06.518Z,7.40
2019-01-14T01:27:37.133Z,7.50
2019-01-14T01:30:10.091Z,7.60
2019-01-14T01:32:40.737Z,7.60
2019-01-14T01:35:12.499Z,7.60
2019-01-14T01:37:43.378Z,7.70
2019-01-14T01:40:19.450Z,7.70
2019-01-14T01:42:50.076Z,7.70
2019-01-14T01:45:21.172Z,7.70
2019-01-14T01:47:52.052Z,7.80
2019-01-14T01:50:22.967Z,7.80
2019-01-14T01:52:53.878Z,7.90
2019-01-14T01:55:24.734Z,7.90
2019-01-14T01:57:55.890Z,7.90
2019-01-14T02:00:26.473Z,7.90
2019-01-14T02:02:57.392Z,7.90
2019-01-14T02:05:27.677Z,8.00
2019-01-14T02:07:57.988Z,7.90
2019-01-14T02:10:28.564Z,8.00
2019-01-14T02:12:59.501Z,7.90
2019-01-14T02:15:30.398Z,7.90
2019-01-14T02:18:00.948Z,8.00
2019-01-14T02:20:31.499Z,8.00
2019-01-14T02:23:02.116Z,8.00
2019-01-14T02:25:32.587Z,8.00
2019-01-14T02:28:03.472Z,7.90
2019-01-14T02:30:34.685Z,7.90
2019-01-14T02:33:05.351Z,7.90
2019-01-14T02:35:36.426Z,7.90
2019-01-14T02:38:07.337Z,7.90
2019-01-14T02:40:38.754Z,7.90
2019-01-14T02:43:09.954Z,7.90
2019-01-14T02:45:40.552Z,7.80
2019-01-14T02:48:11.423Z,7.70
2019-01-14T02:50:41.584Z,7.70
2019-01-14T02:53:12.406Z,7.60
2019-01-14T02:55:42.544Z,7.50
2019-01-14T02:58:13.388Z,7.40
2019-01-14T03:00:44.296Z,7.20
2019-01-14T03:03:14.180Z,7.00
2019-01-14T03:05:45.108Z,6.80
2019-01-14T03:08:16.045Z,6.70
2019-01-14T03:10:46.810Z,6.60
2019-01-14T03:13:17.976Z,6.40
2019-01-14T03:15:48.533Z,6.30
2019-01-14T03:18:20.334Z,6.20
2019-01-14T03:20:50.782Z,6.10
2019-01-14T03:23:21.964Z,6.10
2019-01-14T03:25:58.269Z,6.00
2019-01-14T03:28:26.202Z,6.00
2019-01-14T03:30:56.764Z,6.10
2019-01-14T03:33:27.402Z,6.10
2019-01-14T03:35:58.620Z,6.10
2019-01-14T03:38:29.789Z,6.10
2019-01-14T03:41:00.366Z,6.10
2019-01-14T03:43:31.244Z,6.10
2019-01-14T03:46:02.002Z,6.10
2019-01-14T03:48:33.147Z,6.10
2019-01-14T03:51:04.132Z,6.10
2019-01-14T03:53:35.536Z,6.10
2019-01-14T03:56:05.796Z,6.10
2019-01-14T03:58:37.508Z,6.10
2019-01-14T04:01:08.496Z,6.10
2019-01-14T04:03:39.063Z,6.10
2019-01-14T04:06:09.619Z,6.10
2019-01-14T04:08:39.868Z,6.20
2019-01-14T04:11:10.781Z,6.20
2019-01-14T04:13:41.503Z,6.30
2019-01-14T04:16:12.636Z,6.40
2019-01-14T04:18:43.823Z,6.40
2019-01-14T04:21:15.284Z,6.50
2019-01-14T04:23:46.140Z,6.50
2019-01-14T04:26:18.536Z,6.50
2019-01-14T04:28:49.126Z,6.50
2019-01-14T04:31:20.047Z,6.60
2019-01-14T04:33:50.625Z,6.60
2019-01-14T04:36:20.901Z,6.70
2019-01-14T04:38:51.617Z,6.70
2019-01-14T04:41:22.853Z,6.80
2019-01-14T04:43:53.541Z,6.90
2019-01-14T04:46:24.368Z,6.90
2019-01-14T04:48:55.483Z,7.00
2019-01-14T04:51:26.354Z,7.00
2019-01-14T04:53:57.447Z,7.10
2019-01-14T04:56:28.515Z,7.10
2019-01-14T04:58:59.380Z,7.20
2019-01-14T05:01:30.295Z,7.20
2019-01-14T05:04:00.879Z,7.20
2019-01-14T05:06:31.723Z,7.20
2019-01-14T05:09:03.140Z,7.20
2019-01-14T05:11:35.286Z,7.30
2019-01-14T05:14:06.376Z,7.30
2019-01-14T05:16:37.473Z,7.20
2019-01-14T05:19:08.257Z,7.20
2019-01-14T05:21:39.182Z,7.20
2019-01-14T05:24:10.070Z,7.10
2019-01-14T05:26:40.497Z,7.10
2019-01-14T05:29:11.285Z,7.10
2019-01-14T05:31:42.163Z,7.00
2019-01-14T05:34:12.387Z,7.00
2019-01-14T05:36:42.795Z,6.90
2019-01-14T05:39:13.620Z,6.90
2019-01-14T05:41:44.237Z,6.90
2019-01-14T05:44:15.395Z,6.80
2019-01-14T05:46:46.538Z,6.80
2019-01-14T05:49:17.788Z,6.70
2019-01-14T05:51:48.395Z,6.70
2019-01-14T05:54:18.947Z,6.70
2019-01-14T05:56:49.413Z,6.80
2019-01-14T05:59:19.628Z,6.80
2019-01-14T06:01:50.543Z,6.90
2019-01-14T06:04:21.720Z,6.90
2019-01-14T06:06:52.280Z,7.00
2019-01-14T06:09:23.366Z,7.10
2019-01-14T06:11:53.660Z,7.10
2019-01-14T06:14:24.582Z,7.10
2019-01-14T06:16:55.130Z,7.00
2019-01-14T06:19:27.481Z,7.00
2019-01-14T06:21:58.572Z,7.00
2019-01-14T06:24:29.163Z,7.00
2019-01-14T06:27:00.016Z,7.00
2019-01-14T06:29:31.173Z,6.90
2019-01-14T06:32:01.448Z,6.90
2019-01-14T06:34:31.740Z,6.90
2019-01-14T06:37:02.389Z,6.80
2019-01-14T06:39:32.967Z,6.70
2019-01-14T06:42:07.532Z,6.70
2019-01-14T06:44:36.184Z,6.70
2019-01-14T06:47:06.930Z,6.70
2019-01-14T06:49:37.836Z,6.70
2019-01-14T06:52:08.032Z,6.80
2019-01-14T06:54:38.546Z,6.80
2019-01-14T06:57:09.149Z,6.80
2019-01-14T06:59:40.982Z,6.90
2019-01-14T07:02:12.254Z,6.80
2019-01-14T07:04:43.028Z,6.90
2019-01-14T07:07:14.161Z,6.90
2019-01-14T07:09:44.764Z,6.90
2019-01-14T07:12:15.357Z,6.80
2019-01-14T07:14:46.572Z,6.90
2019-01-14T07:17:17.781Z,6.90
2019-01-14T07:19:48.358Z,6.90
2019-01-14T07:22:19.573Z,6.80
2019-01-14T07:24:50.192Z,6.80
2019-01-14T07:27:21.062Z,6.70
2019-01-14T07:29:52.015Z,6.70
2019-01-14T07:32:22.576Z,6.60
2019-01-14T07:34:53.840Z,6.60
2019-01-14T07:37:24.675Z,6.50
2019-01-14T07:39:54.860Z,6.50
2019-01-14T07:42:25.748Z,6.50
2019-01-14T07:44:56.822Z,6.50
2019-01-14T07:47:27.994Z,6.50
2019-01-14T07:49:58.900Z,6.50
2019-01-14T07:52:29.488Z,6.50
2019-01-14T07:55:00.661Z,6.50
2019-01-14T07:57:31.830Z,6.50
2019-01-14T08:00:03.160Z,6.40
2019-01-14T08:02:33.859Z,6.40
2019-01-14T08:05:04.168Z,6.40
2019-01-14T08:07:35.060Z,6.40
2019-01-14T08:10:06.195Z,6.30
2019-01-14T08:12:36.764Z,6.40
2019-01-14T08:15:10.203Z,6.40
2019-01-14T08:17:41.393Z,6.40
2019-01-14T08:20:12.244Z,6.40
2019-01-14T08:22:42.797Z,6.40
2019-01-14T08:25:14.031Z,6.50
2019-01-14T08:27:44.872Z,6.50
2019-01-14T08:30:25.470Z,6.50
2019-01-14T08:32:56.336Z,6.50
2019-01-14T08:35:28.142Z,6.50
2019-01-14T08:37:59.286Z,6.50
2019-01-14T08:40:30.243Z,6.60
2019-01-14T08:43:01.173Z,6.60
2019-01-14T08:45:32.400Z,6.60
2019-01-14T08:48:03.263Z,6.60
2019-01-14T08:50:34.457Z,6.70
2019-01-14T08:53:04.789Z,6.70
2019-01-14T08:55:35.704Z,6.80
2019-01-14T08:58:06.507Z,6.80
2019-01-14T09:00:37.385Z,6.90
2019-01-14T09:03:07.669Z,6.90
2019-01-14T09:05:38.455Z,7.00
2019-01-14T09:08:09.035Z,7.00
2019-01-14T09:10:39.835Z,7.00
2019-01-14T09:13:11.709Z,7.00
2019-01-14T09:15:42.304Z,7.00
2019-01-14T09:18:13.501Z,7.10
2019-01-14T09:20:44.719Z,7.00
2019-01-14T09:23:15.628Z,7.00
2019-01-14T09:25:53.618Z,7.00
2019-01-14T09:28:19.281Z,7.00
2019-01-14T09:30:50.136Z,7.00
2019-01-14T09:33:20.787Z,7.00
2019-01-14T09:35:51.729Z,7.10
2019-01-14T09:38:22.565Z,7.20
2019-01-14T09:40:53.519Z,7.20
2019-01-14T09:43:24.350Z,7.20
2019-01-14T09:45:54.897Z,7.30
2019-01-14T09:48:25.339Z,7.30
2019-01-14T09:50:55.347Z,7.30
2019-01-14T09:53:25.992Z,7.30
2019-01-14T09:55:56.865Z,7.40
2019-01-14T09:58:27.393Z,7.40
2019-01-14T10:00:58.201Z,7.40
2019-01-14T10:03:28.582Z,7.30
2019-01-14T10:05:59.095Z,7.20
2019-01-14T10:08:30.039Z,7.20
2019-01-14T10:11:01.378Z,7.10
2019-01-14T10:13:32.351Z,7.00
2019-01-14T10:16:03.277Z,7.00
2019-01-14T10:18:34.175Z,6.90
2019-01-14T10:21:04.792Z,7.00
2019-01-14T10:23:35.462Z,7.00
2019-01-14T10:26:06.719Z,6.90
2019-01-14T10:28:37.664Z,6.80
2019-01-14T10:31:08.586Z,6.60
2019-01-14T10:33:39.086Z,6.40
2019-01-14T10:36:09.617Z,6.30
2019-01-14T10:38:40.163Z,6.20
2019-01-14T10:41:11.024Z,6.20
2019-01-14T10:43:42.645Z,6.20
2019-01-14T10:46:13.872Z,6.20
2019-01-14T10:48:44.774Z,6.20
2019-01-14T10:51:15.985Z,6.20
2019-01-14T10:53:46.810Z,6.20
2019-01-14T10:56:17.062Z,6.20
2019-01-14T10:58:47.925Z,6.20
2019-01-14T11:01:19.131Z,6.20
2019-01-14T11:03:50.009Z,6.30
2019-01-14T11:06:20.584Z,6.30
2019-01-14T11:08:57.391Z,6.20
2019-01-14T11:11:23.568Z,6.10
2019-01-14T11:13:55.434Z,6.00
2019-01-14T11:16:26.286Z,6.00
2019-01-14T11:18:56.810Z,6.00
2019-01-14T11:21:28.034Z,5.90
2019-01-14T11:23:59.252Z,6.00
2019-01-14T11:26:30.435Z,6.20
2019-01-14T11:29:01.255Z,6.40
2019-01-14T11:31:32.454Z,6.50
2019-01-14T11:34:03.210Z,6.70
2019-01-14T11:36:34.409Z,6.80
2019-01-14T11:39:13.449Z,7.20
2019-01-14T11:41:43.744Z,7.50
2019-01-14T11:44:14.297Z,8.20
2019-01-14T11:46:45.296Z,8.50
2019-01-14T11:49:15.830Z,8.20
2019-01-14T11:51:46.719Z,7.80
2019-01-14T11:54:17.511Z,7.50
2019-01-14T11:56:48.419Z,7.40
2019-01-14T11:59:18.922Z,7.30
2019-01-14T12:01:49.835Z,7.40
2019-01-14T12:04:20.093Z,7.80
2019-01-14T12:06:50.999Z,8.10
2019-01-14T12:09:21.533Z,8.60
2019-01-14T12:11:52.241Z,8.70
2019-01-14T12:14:23.189Z,8.50
2019-01-14T12:16:54.105Z,8.20
2019-01-14T12:19:24.553Z,8.00
2019-01-14T12:21:55.851Z,7.80
2019-01-14T12:24:26.769Z,7.90
2019-01-14T12:26:57.369Z,8.60
2019-01-14T12:29:27.873Z,9.50
2019-01-14T12:31:58.809Z,10.10
2019-01-14T12:34:29.363Z,10.70
2019-01-14T12:37:00.257Z,10.90
2019-01-14T12:39:31.115Z,11.40
2019-01-14T12:42:02.067Z,11.60
2019-01-14T12:44:32.745Z,11.20
2019-01-14T12:47:03.357Z,11.10
2019-01-14T12:49:34.201Z,10.90
2019-01-14T12:52:05.379Z,10.90
2019-01-14T12:54:36.151Z,10.40
2019-01-14T12:57:06.983Z,9.60
2019-01-14T12:59:37.831Z,8.80
2019-01-14T13:02:08.141Z,8.60
2019-01-14T13:04:39.248Z,8.40
2019-01-14T13:07:09.839Z,8.40
2019-01-14T13:09:40.683Z,8.80
2019-01-14T13:12:11.289Z,9.20
2019-01-14T13:14:41.553Z,9.40
2019-01-14T13:17:12.036Z,9.80
2019-01-14T13:19:42.818Z,10.00
2019-01-14T13:22:13.771Z,9.60
2019-01-14T13:24:44.662Z,9.20
2019-01-14T13:27:15.518Z,8.90
2019-01-14T13:29:46.126Z,8.90
2019-01-14T13:32:16.711Z,9.50
2019-01-14T13:34:47.506Z,10.00
2019-01-14T13:37:18.424Z,10.40
2019-01-14T13:39:52.624Z,10.80
2019-01-14T13:42:23.688Z,10.60
2019-01-14T13:44:53.998Z,10.10
2019-01-14T13:47:25.156Z,9.50
2019-01-14T13:49:55.564Z,9.10
2019-01-14T13:52:26.122Z,8.80
2019-01-14T13:54:56.702Z,8.60
2019-01-14T13:57:27.280Z,8.50
2019-01-14T13:59:57.555Z,8.30
2019-01-14T14:02:28.110Z,8.00
2019-01-14T14:04:58.610Z,7.80
2019-01-14T14:07:29.160Z,7.60
2019-01-14T14:09:59.672Z,7.50
2019-01-14T14:12:30.304Z,7.30
2019-01-14T14:15:01.887Z,7.20
2019-01-14T14:17:33.229Z,7.20
2019-01-14T14:20:04.538Z,7.20
2019-01-14T14:22:36.525Z,7.10
2019-01-14T14:25:08.115Z,6.90
2019-01-14T14:27:39.008Z,6.80
2019-01-14T14:30:19.698Z,6.60
2019-01-14T14:32:50.042Z,6.50
2019-01-14T14:35:20.572Z,6.50
2019-01-14T14:37:51.437Z,6.40
2019-01-14T14:40:22.003Z,6.40
2019-01-14T14:42:52.944Z,6.60
2019-01-14T14:45:23.485Z,7.30
2019-01-14T14:47:54.628Z,7.70
2019-01-14T14:50:25.218Z,7.50
2019-01-14T14:52:55.778Z,7.20
2019-01-14T14:55:26.616Z,7.10
2019-01-14T14:57:57.457Z,6.90
2019-01-14T15:00:28.325Z,6.90
2019-01-14T15:02:59.603Z,6.90
2019-01-14T15:05:30.750Z,6.90
2019-01-14T15:08:01.593Z,7.00
2019-01-14T15:10:32.428Z,7.00
2019-01-14T15:13:03.338Z,7.00
2019-01-14T15:15:34.000Z,7.00
2019-01-14T15:18:05.517Z,6.90
2019-01-14T15:20:36.753Z,6.80
2019-01-14T15:23:07.630Z,6.80
2019-01-14T15:25:38.761Z,6.70
2019-01-14T15:28:09.863Z,6.60
2019-01-14T15:30:40.770Z,6.30
2019-01-14T15:33:11.266Z,6.10
2019-01-14T15:35:41.284Z,5.90
2019-01-14T15:38:12.763Z,5.70
2019-01-14T15:40:43.414Z,5.60
2019-01-14T15:43:13.906Z,5.50
2019-01-14T15:45:44.734Z,5.30
2019-01-14T15:48:15.929Z,5.30
2019-01-14T15:50:46.547Z,5.30
2019-01-14T15:53:17.690Z,5.30
2019-01-14T15:55:48.539Z,5.40
2019-01-14T15:58:19.336Z,5.40
2019-01-14T16:00:50.405Z,5.40
2019-01-14T16:03:21.361Z,5.40
2019-01-14T16:05:52.613Z,5.40
2019-01-14T16:08:23.442Z,5.40
2019-01-14T16:10:54.650Z,5.30
2019-01-14T16:13:25.588Z,5.30
2019-01-14T16:15:56.723Z,5.10
2019-01-14T16:18:27.695Z,5.00
2019-01-14T16:20:58.656Z,4.90
2019-01-14T16:23:29.854Z,4.90
2019-01-14T16:26:00.533Z,4.80
2019-01-14T16:28:31.341Z,4.70
2019-01-14T16:31:29.751Z,4.50
2019-01-14T16:34:02.340Z,4.40
2019-01-14T16:36:32.967Z,4.30
2019-01-14T16:39:05.255Z,4.30
2019-01-14T16:41:36.444Z,4.20
2019-01-14T16:44:06.865Z,4.10
2019-01-14T16:46:37.445Z,4.10
2019-01-14T16:49:07.987Z,4.00
2019-01-14T16:51:39.227Z,4.00
2019-01-14T16:54:10.235Z,4.00
2019-01-14T16:56:40.890Z,4.00
2019-01-14T16:59:11.463Z,3.90
2019-01-14T17:01:42.089Z,3.90
2019-01-14T17:04:13.071Z,3.90
2019-01-14T17:06:43.669Z,3.80
2019-01-14T17:09:14.045Z,3.80
2019-01-14T17:11:44.911Z,3.80
2019-01-14T17:14:16.125Z,3.70
2019-01-14T17:16:47.271Z,3.80
2019-01-14T17:19:17.884Z,3.80
2019-01-14T17:21:48.467Z,3.70
2019-01-14T17:24:19.071Z,3.70
2019-01-14T17:26:50.308Z,3.70
2019-01-14T17:29:21.212Z,3.70
2019-01-14T17:31:52.400Z,3.70
2019-01-14T17:34:23.662Z,3.70
2019-01-14T17:36:54.268Z,3.70
2019-01-14T17:39:25.433Z,3.80
2019-01-14T17:41:56.397Z,3.70
2019-01-14T17:44:27.251Z,3.80
2019-01-14T17:46:57.771Z,3.80
2019-01-14T17:49:28.757Z,3.70
2019-01-14T17:51:59.643Z,3.70
2019-01-14T17:54:30.597Z,3.70
2019-01-14T17:57:01.430Z,3.70
2019-01-14T17:59:31.997Z,3.70
2019-01-14T18:02:04.100Z,3.70
2019-01-14T18:04:35.038Z,3.70
2019-01-14T18:07:05.598Z,3.80
2019-01-14T18:09:36.095Z,3.80
2019-01-14T18:12:07.358Z,3.90
2019-01-14T18:14:37.390Z,3.90
2019-01-14T18:17:08.006Z,3.90
2019-01-14T18:19:38.609Z,3.90
2019-01-14T18:22:09.222Z,4.00
2019-01-14T18:24:39.503Z,4.00
2019-01-14T18:27:09.806Z,4.00
2019-01-14T18:29:40.116Z,4.00
2019-01-14T18:32:10.149Z,4.00
2019-01-14T18:34:40.474Z,3.90
2019-01-14T18:37:10.478Z,3.90
2019-01-14T18:39:41.094Z,3.90
2019-01-14T18:42:11.702Z,3.90
2019-01-14T18:44:42.008Z,3.90
2019-01-14T18:47:12.632Z,3.80
2019-01-14T18:49:43.502Z,3.80
2019-01-14T18:52:13.851Z,3.80
2019-01-14T18:54:44.476Z,3.80
2019-01-14T18:57:14.516Z,3.80
2019-01-14T18:59:45.425Z,3.80
2019-01-14T19:02:15.725Z,3.80
2019-01-14T19:04:46.886Z,3.80
2019-01-14T19:07:17.443Z,3.80
2019-01-14T19:09:47.972Z,3.80
2019-01-14T19:12:19.072Z,3.80
2019-01-14T19:14:49.498Z,3.80
2019-01-14T19:17:20.066Z,3.70
2019-01-14T19:19:50.699Z,3.70
2019-01-14T19:22:21.316Z,3.70
2019-01-14T19:24:52.206Z,3.70
2019-01-14T19:27:23.090Z,3.60
2019-01-14T19:29:53.740Z,3.60
2019-01-14T19:32:24.683Z,3.50
2019-01-14T19:34:55.212Z,3.50
2019-01-14T19:37:25.796Z,3.50
2019-01-14T19:39:56.716Z,3.50
2019-01-14T19:42:27.632Z,3.50
2019-01-14T19:44:58.455Z,3.50
2019-01-14T19:47:30.014Z,3.60
2019-01-14T19:50:00.031Z,3.60
2019-01-14T19:52:30.873Z,3.60
2019-01-14T19:55:01.482Z,3.60
2019-01-14T19:57:32.446Z,3.60
2019-01-14T20:00:04.741Z,3.60
2019-01-14T20:02:35.718Z,3.70
2019-01-14T20:05:08.289Z,3.70
2019-01-14T20:07:39.865Z,3.80
2019-01-14T20:10:12.198Z,3.80
2019-01-14T20:12:42.871Z,3.80
2019-01-14T20:15:14.703Z,3.80
2019-01-14T20:17:45.531Z,3.90
2019-01-14T20:20:16.894Z,3.90
2019-01-14T20:22:47.815Z,3.90
2019-01-14T20:25:18.579Z,3.90
2019-01-14T20:27:49.300Z,4.00
2019-01-14T20:30:22.019Z,4.00
2019-01-14T20:32:53.251Z,4.00
2019-01-14T20:35:24.399Z,4.00
2019-01-14T20:37:55.595Z,4.10
2019-01-14T20:40:26.130Z,4.10
2019-01-14T20:42:57.079Z,4.00
2019-01-14T20:45:28.045Z,4.00
2019-01-14T20:47:58.383Z,4.00
2019-01-14T20:50:29.258Z,4.00
2019-01-14T20:53:00.510Z,4.10
2019-01-14T20:55:31.757Z,4.10
2019-01-14T20:58:03.007Z,4.20
2019-01-14T21:00:33.647Z,4.20
2019-01-14T21:03:04.682Z,4.20
2019-01-14T21:05:35.597Z,4.20
2019-01-14T21:08:06.511Z,4.20
2019-01-14T21:10:37.499Z,4.30
2019-01-14T21:13:08.335Z,4.30
2019-01-14T21:15:38.917Z,4.30
2019-01-14T21:18:10.083Z,4.30
2019-01-14T21:20:40.547Z,4.40
2019-01-14T21:23:11.103Z,4.40
2019-01-14T21:25:41.713Z,4.40
2019-01-14T21:28:12.366Z,4.40
2019-01-14T21:30:44.301Z,4.40
2019-01-14T21:33:14.721Z,4.40
2019-01-14T21:35:45.002Z,4.40
2019-01-14T21:38:16.149Z,4.50
2019-01-14T21:40:47.796Z,4.50
2019-01-14T21:43:18.708Z,4.50
2019-01-14T21:45:49.619Z,4.50
2019-01-14T21:48:20.811Z,4.50
2019-01-14T21:50:52.172Z,4.50
2019-01-14T21:53:23.064Z,4.50
2019-01-14T21:55:54.211Z,4.60
2019-01-14T21:58:24.828Z,4.50
2019-01-14T22:00:55.694Z,4.50
2019-01-14T22:03:26.243Z,4.50
2019-01-14T22:05:57.083Z,4.50
2019-01-14T22:08:27.842Z,4.40
2019-01-14T22:10:58.851Z,4.40
2019-01-14T22:13:29.428Z,4.40
2019-01-14T22:15:59.712Z,4.40
2019-01-14T22:18:30.216Z,4.40
2019-01-14T22:21:00.610Z,4.30
2019-01-14T22:23:31.476Z,4.40
2019-01-14T22:26:02.350Z,4.30
2019-01-14T22:28:33.148Z,4.30
2019-01-14T22:31:03.810Z,4.30
2019-01-14T22:33:34.466Z,4.30
2019-01-14T22:36:05.374Z,4.30
2019-01-14T22:38:35.904Z,4.30
2019-01-14T22:41:07.098Z,4.30
2019-01-14T22:43:37.970Z,4.40
2019-01-14T22:46:08.526Z,4.40
2019-01-14T22:48:39.663Z,4.40
2019-01-14T22:51:10.865Z,4.40
2019-01-14T22:53:42.064Z,4.40
2019-01-14T22:56:12.970Z,4.40
2019-01-14T22:58:43.748Z,4.40
2019-01-14T23:01:41.482Z,4.50
2019-01-14T23:04:12.956Z,4.50
2019-01-14T23:06:44.221Z,4.50
2019-01-14T23:09:15.043Z,4.50
2019-01-14T23:11:52.797Z,4.50
2019-01-14T23:14:19.226Z,4.50
2019-01-14T23:16:50.345Z,4.50
2019-01-14T23:19:21.230Z,4.40
2019-01-14T23:21:52.132Z,4.40
2019-01-14T23:24:22.718Z,4.40
2019-01-14T23:26:53.584Z,4.40
2019-01-14T23:29:24.431Z,4.40
2019-01-14T23:31:55.356Z,4.40
2019-01-14T23:34:26.231Z,4.40
2019-01-14T23:36:57.292Z,4.40
2019-01-14T23:39:28.085Z,4.40
2019-01-14T23:42:00.483Z,4.40
2019-01-14T23:44:31.317Z,4.40
2019-01-14T23:47:02.228Z,4.40
2019-01-14T23:49:33.165Z,4.40
2019-01-14T23:52:03.831Z,4.30
2019-01-14T23:54:37.092Z,4.30
2019-01-14T23:57:07.636Z,4.30
2019-01-14T23:59:38.088Z,4.40
